Jamestown, Pennsylvania
Current Conditions -  °F | °C
As of 3:53 PM on Sunday 23 Nov 2014 (Local Time) from KGKJ Reporting Station
Clear Clear  
Wind Chill: 54°   Ceiling: Unl
Heat Index: 54°   Visibility: 10mi
Dew Point: 40°   Wind: 5mph
Humidity: 59%   Direction: NA
Pressure: 29.85"   Gusts: NA
Location:  41.48°N, 80.44°W
Report Text: KGKJ 232053Z AUTO VRB04KT 10SM CLR 12/04 A2985 RMK AO2 SLP111 T01220044 58033 TSNO
Loading
Personal Weather Stations






























Interactive Weather Map New forecast layout! Learn more

10-Day Weather Forecast

Advertisements
Track Severe Weather on mobile